createdAt,value
2023-05-10T00:00:24.714Z,4.90
2023-05-10T00:01:56.550Z,4.50
2023-05-10T00:03:28.427Z,4.30
2023-05-10T00:05:00.383Z,4.50
2023-05-10T00:06:32.591Z,4.10
2023-05-10T00:08:04.622Z,4.70
2023-05-10T00:09:36.486Z,5.10
2023-05-10T00:11:08.265Z,5.40
2023-05-10T00:12:40.022Z,5.30
2023-05-10T00:14:13.047Z,5.00
2023-05-10T00:15:44.726Z,4.90
2023-05-10T00:17:16.538Z,5.50
2023-05-10T00:18:48.316Z,4.60
2023-05-10T00:20:20.092Z,4.80
2023-05-10T00:21:52.006Z,4.90
2023-05-10T00:23:23.689Z,5.40
2023-05-10T00:24:58.777Z,3.80
2023-05-10T00:26:30.573Z,4.60
2023-05-10T00:28:02.788Z,4.00
2023-05-10T00:29:34.986Z,3.60
2023-05-10T00:31:06.787Z,5.20
2023-05-10T00:32:38.523Z,5.20
2023-05-10T00:34:10.419Z,5.00
2023-05-10T00:35:42.268Z,4.40
2023-05-10T00:37:14.657Z,3.80
2023-05-10T00:38:46.712Z,3.20
2023-05-10T00:40:18.697Z,3.50
2023-05-10T00:41:52.871Z,4.10
2023-05-10T00:43:24.670Z,3.90
2023-05-10T00:44:56.587Z,3.90
2023-05-10T00:46:29.143Z,4.20
2023-05-10T00:48:04.756Z,4.10
2023-05-10T00:49:37.725Z,3.60
2023-05-10T00:51:09.967Z,4.40
2023-05-10T00:52:43.894Z,4.10
2023-05-10T00:54:16.720Z,3.80
2023-05-10T00:55:48.592Z,4.10
2023-05-10T00:57:21.047Z,4.60
2023-05-10T00:58:52.867Z,3.70
2023-05-10T01:00:24.666Z,3.50
2023-05-10T01:01:59.091Z,3.70
2023-05-10T01:03:31.625Z,4.80
2023-05-10T01:05:04.746Z,4.50
2023-05-10T01:06:36.673Z,4.40
2023-05-10T01:08:09.605Z,4.90
2023-05-10T01:09:41.494Z,3.40
2023-05-10T01:11:13.257Z,4.60
2023-05-10T01:12:48.117Z,5.50
2023-05-10T01:14:21.471Z,5.30
2023-05-10T01:15:53.809Z,4.60
2023-05-10T01:17:26.523Z,4.70
2023-05-10T01:18:58.504Z,5.10
2023-05-10T01:20:41.643Z,5.60
2023-05-10T01:22:54.888Z,5.30
2023-05-10T01:24:58.583Z,4.70
2023-05-10T01:27:28.904Z,3.90
2023-05-10T01:29:30.894Z,3.60
2023-05-10T01:31:43.272Z,3.50
2023-05-10T01:33:37.011Z,3.30
2023-05-10T01:35:37.392Z,3.80
2023-05-10T01:37:18.959Z,2.70
2023-05-10T01:38:58.326Z,3.20
2023-05-10T01:40:44.000Z,3.20
2023-05-10T01:42:22.792Z,3.70
2023-05-10T01:44:36.965Z,3.70
2023-05-10T01:46:19.039Z,3.30
2023-05-10T01:48:15.117Z,3.40
2023-05-10T01:49:52.863Z,3.70
2023-05-10T01:51:30.310Z,4.00
2023-05-10T01:53:04.548Z,3.00
2023-05-10T01:54:42.561Z,3.20
2023-05-10T01:56:16.695Z,3.40
2023-05-10T01:57:58.009Z,3.00
2023-05-10T01:59:40.094Z,3.60
2023-05-10T02:01:14.553Z,2.80
2023-05-10T02:02:49.627Z,2.80
2023-05-10T02:04:25.659Z,3.80
2023-05-10T02:05:59.087Z,3.50
2023-05-10T02:07:34.231Z,3.50
2023-05-10T02:09:08.944Z,3.20
2023-05-10T02:10:42.805Z,3.50
2023-05-10T02:12:16.489Z,3.60
2023-05-10T02:13:51.479Z,4.10
2023-05-10T02:15:25.742Z,3.10
2023-05-10T02:17:00.481Z,3.60
2023-05-10T02:18:35.795Z,2.70
2023-05-10T02:20:11.304Z,3.60
2023-05-10T02:21:45.750Z,3.90
2023-05-10T02:23:19.240Z,3.30
2023-05-10T02:24:52.066Z,3.60
2023-05-10T02:26:26.222Z,3.10
2023-05-10T02:28:01.038Z,4.40
2023-05-10T02:29:34.818Z,3.90
2023-05-10T02:31:07.968Z,4.00
2023-05-10T02:32:41.061Z,3.50
2023-05-10T02:34:14.681Z,3.80
2023-05-10T02:35:48.097Z,4.30
2023-05-10T02:37:22.686Z,4.10
2023-05-10T02:38:55.172Z,4.20
2023-05-10T02:40:29.594Z,4.10
2023-05-10T02:42:03.299Z,4.80
2023-05-10T02:43:36.793Z,4.10
2023-05-10T02:45:14.134Z,4.50
2023-05-10T02:46:48.880Z,4.80
2023-05-10T02:48:20.672Z,4.10
2023-05-10T02:49:54.172Z,4.90
2023-05-10T02:51:32.587Z,4.60
2023-05-10T02:53:12.610Z,4.90
2023-05-10T02:54:53.293Z,4.00
2023-05-10T02:56:40.970Z,4.80
2023-05-10T02:58:12.767Z,4.80
2023-05-10T02:59:45.962Z,4.80
2023-05-10T03:01:17.930Z,5.30
2023-05-10T03:02:49.827Z,5.00
2023-05-10T03:04:21.891Z,5.00
2023-05-10T03:05:56.724Z,4.60
2023-05-10T03:07:28.563Z,5.80
2023-05-10T03:09:00.931Z,4.70
2023-05-10T03:10:39.141Z,4.90
2023-05-10T03:13:27.661Z,5.30
2023-05-10T03:15:51.685Z,4.50
2023-05-10T03:17:31.864Z,5.70
2023-05-10T03:19:22.029Z,5.50
2023-05-10T03:21:08.107Z,5.50
2023-05-10T03:22:50.794Z,5.30
2023-05-10T03:24:28.387Z,6.30
2023-05-10T03:26:02.750Z,5.80
2023-05-10T03:27:39.895Z,6.30
2023-05-10T03:29:15.180Z,7.10
2023-05-10T03:30:48.079Z,6.90
2023-05-10T03:32:20.214Z,6.70
2023-05-10T03:33:53.696Z,6.60
2023-05-10T03:35:30.445Z,7.20
2023-05-10T03:37:02.282Z,6.90
2023-05-10T03:38:35.498Z,6.50
2023-05-10T03:40:09.480Z,7.20
2023-05-10T03:41:42.588Z,6.90
2023-05-10T03:43:14.374Z,7.10
2023-05-10T03:44:46.247Z,8.30
2023-05-10T03:46:18.167Z,7.40
2023-05-10T03:47:50.229Z,6.60
2023-05-10T03:49:22.015Z,7.40
2023-05-10T03:50:53.744Z,8.50
2023-05-10T03:52:25.515Z,7.30
2023-05-10T03:53:57.793Z,7.00
2023-05-10T03:55:30.405Z,7.80
2023-05-10T03:57:02.184Z,7.40
2023-05-10T03:58:36.250Z,7.80
2023-05-10T04:00:09.190Z,7.00
2023-05-10T04:01:46.967Z,7.20
2023-05-10T04:03:19.389Z,8.20
2023-05-10T04:04:51.689Z,7.90
2023-05-10T04:06:23.499Z,6.50
2023-05-10T04:07:56.435Z,6.90
2023-05-10T04:09:28.210Z,7.90
2023-05-10T04:11:10.606Z,7.40
2023-05-10T04:12:42.664Z,7.00
2023-05-10T04:14:14.402Z,7.30
2023-05-10T04:15:46.341Z,7.20
2023-05-10T04:17:18.160Z,8.60
2023-05-10T04:18:50.197Z,8.10
2023-05-10T04:20:21.894Z,7.30
2023-05-10T04:21:54.737Z,7.80
2023-05-10T04:23:26.914Z,8.80
2023-05-10T04:24:58.590Z,8.30
2023-05-10T04:26:30.503Z,9.00
2023-05-10T04:28:02.203Z,9.30
2023-05-10T04:29:33.966Z,9.70
2023-05-10T04:31:09.055Z,8.20
2023-05-10T04:32:40.907Z,8.80
2023-05-10T04:34:12.757Z,9.20
2023-05-10T04:35:45.684Z,8.20
2023-05-10T04:37:18.097Z,9.40
2023-05-10T04:38:49.806Z,8.90
2023-05-10T04:40:21.669Z,10.00
2023-05-10T04:41:53.976Z,9.30
2023-05-10T04:43:25.719Z,10.50
2023-05-10T04:44:57.539Z,10.30
2023-05-10T04:46:29.368Z,10.30
2023-05-10T04:48:01.189Z,9.60
2023-05-10T04:49:33.252Z,9.50
2023-05-10T04:51:05.069Z,11.00
2023-05-10T04:52:37.541Z,9.90
2023-05-10T04:54:09.512Z,10.20
2023-05-10T04:55:41.554Z,10.60
2023-05-10T04:57:13.324Z,11.10
2023-05-10T04:58:45.071Z,11.90
2023-05-10T05:00:17.765Z,12.30
2023-05-10T05:01:49.925Z,11.00
2023-05-10T05:03:21.958Z,11.30
2023-05-10T05:04:53.653Z,13.40
2023-05-10T05:06:26.109Z,11.80
2023-05-10T05:07:57.861Z,12.00
2023-05-10T05:09:29.638Z,13.20
2023-05-10T05:11:01.527Z,12.90
2023-05-10T05:12:33.232Z,15.30
2023-05-10T05:14:05.003Z,14.00
2023-05-10T05:15:36.806Z,15.20
2023-05-10T05:17:09.270Z,14.10
2023-05-10T05:18:41.157Z,14.60
2023-05-10T05:20:14.075Z,13.70
2023-05-10T05:21:45.859Z,16.40
2023-05-10T05:23:17.884Z,15.90
2023-05-10T05:24:49.676Z,16.60
2023-05-10T05:26:22.335Z,14.80
2023-05-10T05:27:54.122Z,15.80
2023-05-10T05:29:25.874Z,14.60
2023-05-10T05:30:57.729Z,15.30
2023-05-10T05:32:29.873Z,15.30
2023-05-10T05:34:02.351Z,15.60
2023-05-10T05:35:35.185Z,17.40
2023-05-10T05:37:07.790Z,15.30
2023-05-10T05:38:41.096Z,14.40
2023-05-10T05:40:15.781Z,16.00
2023-05-10T05:41:48.490Z,15.70
2023-05-10T05:43:20.334Z,16.90
2023-05-10T05:44:52.226Z,16.30
2023-05-10T05:46:23.994Z,16.60
2023-05-10T05:47:55.989Z,17.30
2023-05-10T05:49:27.779Z,14.20
2023-05-10T05:50:59.754Z,15.40
2023-05-10T05:52:31.688Z,16.70
2023-05-10T05:54:05.240Z,19.00
2023-05-10T05:55:37.034Z,15.30
2023-05-10T05:57:08.901Z,17.10
2023-05-10T05:58:40.811Z,15.90
2023-05-10T06:00:13.404Z,18.10
2023-05-10T06:01:45.494Z,16.50
2023-05-10T06:03:17.642Z,16.00
2023-05-10T06:04:49.419Z,17.40
2023-05-10T06:06:21.139Z,16.30
2023-05-10T06:07:52.991Z,18.60
2023-05-10T06:09:25.551Z,16.10
2023-05-10T06:10:57.376Z,18.20
2023-05-10T06:12:29.146Z,18.40
2023-05-10T06:14:01.963Z,17.60
2023-05-10T06:15:33.789Z,18.60
2023-05-10T06:17:06.160Z,17.40
2023-05-10T06:18:38.374Z,18.20
2023-05-10T06:20:10.949Z,15.10
2023-05-10T06:21:42.792Z,16.90
2023-05-10T06:23:14.579Z,16.80
2023-05-10T06:24:46.295Z,19.50
2023-05-10T06:26:18.382Z,17.00
2023-05-10T06:27:53.586Z,18.90
2023-05-10T06:29:25.799Z,17.30
2023-05-10T06:30:57.519Z,19.00
2023-05-10T06:32:29.637Z,18.60
2023-05-10T06:34:01.604Z,18.90
2023-05-10T06:35:34.412Z,18.00
2023-05-10T06:37:06.352Z,18.40
2023-05-10T06:38:38.304Z,19.30
2023-05-10T06:40:10.726Z,16.70
2023-05-10T06:41:42.995Z,18.70
2023-05-10T06:43:14.946Z,18.60
2023-05-10T06:44:46.790Z,19.20
2023-05-10T06:46:18.746Z,19.00
2023-05-10T06:47:50.706Z,18.10
2023-05-10T06:49:23.032Z,16.20
2023-05-10T06:50:54.894Z,18.00
2023-05-10T06:52:26.572Z,16.80
2023-05-10T06:53:58.332Z,14.90
2023-05-10T06:55:30.325Z,16.60
2023-05-10T06:57:08.808Z,16.90
2023-05-10T06:58:44.983Z,17.30
2023-05-10T07:00:18.225Z,16.10
2023-05-10T07:01:50.325Z,14.90
2023-05-10T07:03:22.213Z,16.60
2023-05-10T07:04:54.240Z,14.50
2023-05-10T07:06:33.289Z,16.40
2023-05-10T07:08:05.610Z,16.40
2023-05-10T07:09:37.460Z,16.60
2023-05-10T07:11:09.265Z,14.80
2023-05-10T07:12:41.194Z,17.30
2023-05-10T07:14:12.998Z,16.90
2023-05-10T07:15:45.749Z,16.90
2023-05-10T07:17:17.552Z,16.30
2023-05-10T07:18:49.471Z,16.70
2023-05-10T07:20:21.341Z,17.00
2023-05-10T07:21:53.118Z,17.80
2023-05-10T07:23:24.928Z,15.40
2023-05-10T07:24:56.672Z,15.50
2023-05-10T07:26:28.339Z,16.30
2023-05-10T07:28:00.243Z,15.30
2023-05-10T07:29:32.149Z,16.70
2023-05-10T07:31:04.158Z,17.00
2023-05-10T07:32:36.124Z,17.00
2023-05-10T07:34:07.883Z,16.30
2023-05-10T07:35:39.878Z,16.60
2023-05-10T07:37:11.640Z,16.80
2023-05-10T07:38:43.436Z,17.40
2023-05-10T07:40:15.148Z,17.80
2023-05-10T07:41:49.682Z,16.50
2023-05-10T07:43:21.476Z,19.80
2023-05-10T07:44:53.181Z,19.30
2023-05-10T07:46:24.979Z,18.30
2023-05-10T07:47:56.875Z,18.20
2023-05-10T07:49:28.844Z,15.60
2023-05-10T07:51:00.612Z,15.80
2023-05-10T07:52:32.368Z,16.00
2023-05-10T07:54:04.281Z,16.40
2023-05-10T07:55:36.038Z,17.10
2023-05-10T07:57:07.740Z,16.10
2023-05-10T07:58:39.396Z,18.80
2023-05-10T08:00:14.640Z,18.00
2023-05-10T08:01:46.961Z,19.90
2023-05-10T08:03:18.880Z,14.90
2023-05-10T08:04:50.752Z,16.30
2023-05-10T08:06:23.092Z,18.00
2023-05-10T08:07:54.985Z,17.60
2023-05-10T08:09:26.890Z,19.70
2023-05-10T08:10:58.581Z,17.70
2023-05-10T08:12:30.372Z,18.80
2023-05-10T08:14:02.589Z,20.50
2023-05-10T08:15:34.374Z,20.20
2023-05-10T08:17:06.245Z,17.50
2023-05-10T08:18:39.594Z,19.20
2023-05-10T08:20:13.861Z,17.30
2023-05-10T08:21:46.865Z,15.10
2023-05-10T08:23:18.730Z,14.50
2023-05-10T08:24:50.524Z,14.80
2023-05-10T08:26:22.588Z,15.50
2023-05-10T08:27:54.412Z,14.20
2023-05-10T08:29:26.820Z,14.40
2023-05-10T08:31:00.468Z,16.00
2023-05-10T08:32:32.461Z,17.00
2023-05-10T08:34:04.225Z,14.50
2023-05-10T08:35:36.116Z,14.40
2023-05-10T08:37:08.337Z,15.80
2023-05-10T08:38:40.330Z,15.30
2023-05-10T08:40:13.331Z,14.80
2023-05-10T08:41:48.983Z,14.00
2023-05-10T08:43:21.007Z,14.00
2023-05-10T08:44:54.966Z,12.90
2023-05-10T08:46:29.453Z,12.70
2023-05-10T08:48:05.933Z,13.10
2023-05-10T08:49:38.876Z,14.60
2023-05-10T08:51:15.956Z,12.40
2023-05-10T08:52:53.276Z,13.20
2023-05-10T08:54:25.402Z,12.50
2023-05-10T08:55:57.930Z,12.70
2023-05-10T08:57:29.808Z,11.50
2023-05-10T08:59:02.050Z,11.70
2023-05-10T09:00:35.347Z,10.50
2023-05-10T09:02:08.351Z,9.60
2023-05-10T09:03:41.078Z,8.70
2023-05-10T09:05:13.647Z,10.30
2023-05-10T09:06:45.569Z,9.90
2023-05-10T09:08:18.598Z,8.60
2023-05-10T09:09:51.683Z,8.80
2023-05-10T09:11:23.902Z,9.40
2023-05-10T09:12:59.314Z,8.00
2023-05-10T09:14:35.117Z,9.40
2023-05-10T09:16:20.411Z,8.80
2023-05-10T09:17:53.807Z,9.00
2023-05-10T09:19:25.739Z,9.60
2023-05-10T09:20:57.562Z,9.70
2023-05-10T09:22:29.349Z,10.20
2023-05-10T09:24:06.137Z,8.90
2023-05-10T09:25:39.558Z,9.60
2023-05-10T09:27:11.573Z,9.60
2023-05-10T09:28:59.631Z,8.60
2023-05-10T09:30:32.496Z,9.60
2023-05-10T09:32:04.484Z,8.80
2023-05-10T09:33:46.897Z,8.50
2023-05-10T09:35:24.646Z,8.30
2023-05-10T09:37:03.867Z,10.00
2023-05-10T09:38:55.229Z,9.10
2023-05-10T09:40:30.321Z,8.80
2023-05-10T09:42:10.219Z,8.20
2023-05-10T09:43:43.979Z,11.00
2023-05-10T09:45:16.030Z,7.60
2023-05-10T09:46:53.733Z,10.20
2023-05-10T09:48:26.134Z,9.40
2023-05-10T09:50:03.961Z,9.50
2023-05-10T09:51:37.029Z,9.00
2023-05-10T09:53:09.007Z,11.20
2023-05-10T09:54:54.652Z,10.80
2023-05-10T09:56:38.515Z,11.90
2023-05-10T09:58:13.274Z,11.20
2023-05-10T09:59:45.461Z,10.10
2023-05-10T10:01:17.789Z,10.70
2023-05-10T10:03:00.393Z,10.30
2023-05-10T10:04:32.712Z,7.60
2023-05-10T10:06:18.688Z,9.80
2023-05-10T10:07:59.999Z,9.20
2023-05-10T10:09:32.953Z,9.70
2023-05-10T10:11:04.941Z,9.80
2023-05-10T10:12:36.751Z,9.70
2023-05-10T10:14:08.537Z,10.30
2023-05-10T10:15:40.670Z,10.50
2023-05-10T10:17:13.998Z,11.40
2023-05-10T10:18:45.980Z,10.40
2023-05-10T10:20:21.162Z,13.20
2023-05-10T10:21:53.076Z,13.60
2023-05-10T10:23:25.050Z,16.20
2023-05-10T10:24:56.859Z,14.20
2023-05-10T10:26:28.963Z,13.60
2023-05-10T10:28:37.904Z,14.10
2023-05-10T10:30:47.142Z,11.80
2023-05-10T10:32:44.970Z,11.70
2023-05-10T10:34:31.594Z,10.80
2023-05-10T10:36:05.266Z,12.20
2023-05-10T10:37:48.898Z,10.70
2023-05-10T10:39:21.714Z,10.30
2023-05-10T10:41:52.577Z,11.40
2023-05-10T10:43:26.528Z,11.10
2023-05-10T10:45:14.767Z,11.20
2023-05-10T10:47:24.029Z,9.70
2023-05-10T10:49:11.636Z,10.10
2023-05-10T10:50:47.792Z,9.90
2023-05-10T10:52:37.363Z,10.30
2023-05-10T10:54:13.036Z,9.80
2023-05-10T10:55:49.665Z,8.60
2023-05-10T10:57:25.002Z,10.20
2023-05-10T10:59:00.876Z,8.90
2023-05-10T11:00:38.251Z,9.50
2023-05-10T11:02:10.733Z,9.80
2023-05-10T11:04:18.481Z,10.10
2023-05-10T11:05:52.956Z,8.70
2023-05-10T11:07:25.582Z,9.90
2023-05-10T11:08:57.356Z,8.70
2023-05-10T11:10:29.780Z,8.70
2023-05-10T11:12:09.444Z,9.00
2023-05-10T11:13:42.513Z,9.80
2023-05-10T11:15:14.541Z,10.40
2023-05-10T11:16:46.952Z,11.50
2023-05-10T11:18:25.449Z,12.50
2023-05-10T11:20:11.490Z,12.70
2023-05-10T11:22:04.811Z,14.50
2023-05-10T11:23:57.195Z,14.10
2023-05-10T11:25:29.440Z,13.00
2023-05-10T11:27:02.087Z,13.80
2023-05-10T11:28:34.433Z,13.70
2023-05-10T11:30:08.818Z,18.50
2023-05-10T11:31:46.348Z,17.90
2023-05-10T11:33:20.566Z,17.20
2023-05-10T11:34:52.449Z,16.40
2023-05-10T11:36:30.615Z,16.50
2023-05-10T11:38:02.614Z,17.40
2023-05-10T11:39:34.662Z,15.80
2023-05-10T11:41:06.528Z,15.20
2023-05-10T11:42:39.225Z,15.40
2023-05-10T11:44:10.990Z,16.60
2023-05-10T11:45:43.520Z,16.60
2023-05-10T11:47:15.432Z,16.10
2023-05-10T11:48:50.937Z,15.00
2023-05-10T11:50:22.870Z,15.00
2023-05-10T11:52:05.022Z,11.30
2023-05-10T11:53:37.120Z,9.80
2023-05-10T11:55:09.002Z,11.60
2023-05-10T11:56:42.157Z,10.80
2023-05-10T11:58:14.035Z,12.20
2023-05-10T11:59:46.655Z,11.00
2023-05-10T12:01:18.855Z,10.60
2023-05-10T12:02:51.145Z,10.00
2023-05-10T12:04:23.583Z,10.20
2023-05-10T12:05:57.388Z,9.70
2023-05-10T12:07:29.270Z,11.50
2023-05-10T12:09:08.592Z,11.30
2023-05-10T12:10:40.968Z,10.60
2023-05-10T12:12:18.727Z,10.00
2023-05-10T12:13:51.269Z,9.40
2023-05-10T12:15:25.574Z,8.10
2023-05-10T12:16:58.682Z,11.50
2023-05-10T12:18:30.750Z,11.20
2023-05-10T12:20:24.855Z,9.70
2023-05-10T12:21:56.707Z,10.70
2023-05-10T12:23:28.618Z,10.40
2023-05-10T12:25:00.733Z,9.90
2023-05-10T12:26:33.797Z,11.00
2023-05-10T12:28:10.162Z,9.70
2023-05-10T12:29:45.475Z,9.20
2023-05-10T12:31:17.470Z,10.50
2023-05-10T12:32:50.734Z,10.10
2023-05-10T12:34:26.799Z,10.30
2023-05-10T12:36:00.473Z,9.90
2023-05-10T12:37:36.860Z,9.60
2023-05-10T12:39:08.551Z,10.80
2023-05-10T12:40:40.310Z,11.60
2023-05-10T12:42:12.924Z,9.10
2023-05-10T12:43:46.529Z,10.30
2023-05-10T12:45:19.538Z,9.70
2023-05-10T12:46:51.331Z,9.50
2023-05-10T12:48:23.569Z,7.60
2023-05-10T12:49:55.456Z,9.70
2023-05-10T12:51:27.260Z,10.10
2023-05-10T12:52:59.091Z,11.60
2023-05-10T12:54:30.994Z,9.70
2023-05-10T12:56:02.966Z,12.00
2023-05-10T12:57:34.772Z,10.60
2023-05-10T12:59:06.630Z,10.00
2023-05-10T13:00:38.950Z,9.20
2023-05-10T13:02:11.256Z,11.20
2023-05-10T13:03:44.126Z,9.80
2023-05-10T13:05:15.988Z,9.90
2023-05-10T13:06:48.206Z,8.80
2023-05-10T13:08:19.936Z,9.20
2023-05-10T13:09:51.720Z,9.30
2023-05-10T13:11:23.422Z,8.30
2023-05-10T13:12:55.184Z,9.20
2023-05-10T13:14:28.053Z,10.00
2023-05-10T13:15:59.848Z,9.70
2023-05-10T13:17:32.221Z,7.00
2023-05-10T13:19:06.138Z,9.00
2023-05-10T13:20:38.238Z,5.60
2023-05-10T13:22:09.927Z,7.20
2023-05-10T13:23:41.628Z,7.20
2023-05-10T13:25:14.214Z,6.60
2023-05-10T13:26:46.579Z,6.20
2023-05-10T13:28:18.317Z,6.70
2023-05-10T13:29:50.134Z,6.40
2023-05-10T13:31:22.259Z,6.20
2023-05-10T13:32:54.065Z,6.80
2023-05-10T13:34:25.934Z,5.50
2023-05-10T13:35:57.709Z,6.00
2023-05-10T13:37:30.417Z,6.10
2023-05-10T13:39:03.894Z,6.60
2023-05-10T13:40:36.958Z,5.90
2023-05-10T13:42:08.709Z,5.30
2023-05-10T13:43:40.690Z,5.10
2023-05-10T13:45:14.168Z,5.10
2023-05-10T13:46:48.862Z,4.90
2023-05-10T13:48:20.657Z,4.70
2023-05-10T13:49:55.535Z,4.60
2023-05-10T13:51:27.222Z,4.70
2023-05-10T13:52:58.947Z,3.70
2023-05-10T13:54:32.531Z,3.50
2023-05-10T13:56:04.462Z,4.50
2023-05-10T13:57:37.171Z,3.40
2023-05-10T13:59:08.974Z,4.00
2023-05-10T14:00:41.209Z,3.10
2023-05-10T14:02:14.193Z,3.10
2023-05-10T14:03:46.434Z,3.20
2023-05-10T14:05:19.931Z,4.50
2023-05-10T14:06:54.152Z,3.70
2023-05-10T14:08:28.049Z,3.40
2023-05-10T14:10:01.914Z,3.60
2023-05-10T14:11:33.704Z,4.20
2023-05-10T14:13:05.648Z,4.20
2023-05-10T14:14:37.469Z,4.90
2023-05-10T14:16:09.499Z,3.80
2023-05-10T14:17:41.418Z,3.90
2023-05-10T14:19:13.287Z,2.50
2023-05-10T14:20:45.061Z,4.00
2023-05-10T14:22:16.860Z,3.60
2023-05-10T14:23:48.757Z,4.20
2023-05-10T14:25:20.753Z,3.60
2023-05-10T14:26:54.924Z,3.40
2023-05-10T14:28:27.203Z,5.20
2023-05-10T14:29:59.076Z,5.00
2023-05-10T14:31:31.497Z,5.40
2023-05-10T14:33:03.992Z,4.70
2023-05-10T14:34:36.116Z,4.50
2023-05-10T14:36:08.446Z,5.50
2023-05-10T14:37:40.258Z,4.90
2023-05-10T14:39:13.803Z,6.20
2023-05-10T14:40:46.090Z,6.20
2023-05-10T14:42:17.901Z,5.50
2023-05-10T14:43:49.653Z,4.40
2023-05-10T14:45:22.362Z,6.00
2023-05-10T14:46:54.121Z,6.60
2023-05-10T14:48:26.013Z,6.40
2023-05-10T14:49:57.897Z,5.90
2023-05-10T14:51:29.807Z,5.80
2023-05-10T14:53:01.824Z,5.70
2023-05-10T14:54:34.608Z,7.00
2023-05-10T14:56:07.004Z,7.90
2023-05-10T14:57:39.095Z,6.40
2023-05-10T14:59:11.079Z,7.20
2023-05-10T15:00:44.472Z,6.00
2023-05-10T15:02:17.323Z,6.70
2023-05-10T15:03:49.736Z,6.50
2023-05-10T15:05:22.744Z,5.80
2023-05-10T15:07:00.254Z,6.80
2023-05-10T15:08:32.108Z,5.50
2023-05-10T15:10:04.806Z,5.50
2023-05-10T15:11:36.813Z,5.50
2023-05-10T15:13:08.614Z,5.20
2023-05-10T15:14:40.539Z,6.50
2023-05-10T15:16:12.234Z,6.30
2023-05-10T15:17:44.520Z,5.80
2023-05-10T15:19:16.403Z,6.40
2023-05-10T15:20:48.179Z,5.80
2023-05-10T15:22:20.133Z,5.60
2023-05-10T15:23:52.364Z,5.90
2023-05-10T15:25:24.747Z,5.30
2023-05-10T15:26:56.665Z,5.50
2023-05-10T15:28:28.476Z,6.10
2023-05-10T15:30:00.753Z,4.70
2023-05-10T15:31:32.780Z,5.10
2023-05-10T15:33:04.582Z,7.30
2023-05-10T15:34:37.214Z,8.40
2023-05-10T15:36:09.207Z,5.30
2023-05-10T15:37:41.057Z,6.90
2023-05-10T15:39:13.071Z,6.50
2023-05-10T15:40:44.773Z,6.00
2023-05-10T15:42:16.985Z,6.70
2023-05-10T15:43:48.867Z,6.80
2023-05-10T15:45:21.283Z,7.40
2023-05-10T15:46:53.206Z,5.70
2023-05-10T15:48:25.125Z,6.50
2023-05-10T15:49:56.984Z,5.60
2023-05-10T15:51:28.888Z,5.30
2023-05-10T15:53:00.712Z,6.70
2023-05-10T15:54:32.523Z,5.20
2023-05-10T15:56:04.941Z,5.20
2023-05-10T15:57:37.040Z,6.30
2023-05-10T15:59:10.650Z,4.70
2023-05-10T16:00:42.471Z,4.10
2023-05-10T16:02:14.581Z,5.00
2023-05-10T16:03:46.515Z,6.50
2023-05-10T16:05:19.097Z,5.00
2023-05-10T16:06:51.107Z,5.00
2023-05-10T16:08:23.016Z,5.40
2023-05-10T16:09:54.914Z,5.60
2023-05-10T16:11:27.027Z,5.60
2023-05-10T16:12:59.341Z,5.00
2023-05-10T16:14:31.145Z,5.00
2023-05-10T16:16:02.983Z,5.40
2023-05-10T16:17:34.725Z,3.90
2023-05-10T16:19:06.607Z,4.80
2023-05-10T16:20:38.881Z,4.80
2023-05-10T16:22:10.656Z,5.40
2023-05-10T16:23:43.247Z,5.50
2023-05-10T16:25:15.493Z,4.50
2023-05-10T16:26:47.658Z,5.10
2023-05-10T16:28:21.198Z,4.90
2023-05-10T16:29:53.106Z,5.00
2023-05-10T16:31:25.012Z,5.80
2023-05-10T16:32:58.206Z,4.80
2023-05-10T16:34:30.076Z,5.00
2023-05-10T16:36:01.854Z,5.30
2023-05-10T16:37:33.754Z,5.10
2023-05-10T16:39:05.747Z,5.50
2023-05-10T16:40:37.590Z,3.90
2023-05-10T16:42:09.323Z,5.30
2023-05-10T16:43:41.121Z,4.00
2023-05-10T16:45:13.217Z,4.70
2023-05-10T16:46:45.663Z,5.10
2023-05-10T16:48:17.452Z,4.50
2023-05-10T16:49:49.320Z,5.40
2023-05-10T16:51:21.465Z,5.30
2023-05-10T16:52:53.226Z,4.60
2023-05-10T16:54:25.133Z,3.80
2023-05-10T16:55:57.551Z,5.30
2023-05-10T16:57:29.510Z,5.40
2023-05-10T16:59:01.590Z,5.20
2023-05-10T17:00:33.675Z,5.40
2023-05-10T17:02:05.572Z,5.10
2023-05-10T17:03:37.635Z,5.30
2023-05-10T17:05:09.990Z,4.10
2023-05-10T17:06:42.188Z,4.80
2023-05-10T17:08:14.301Z,5.80
2023-05-10T17:09:47.163Z,5.90
2023-05-10T17:11:21.143Z,5.80
2023-05-10T17:12:53.686Z,4.80
2023-05-10T17:14:25.487Z,6.30
2023-05-10T17:15:57.497Z,5.80
2023-05-10T17:17:29.608Z,6.70
2023-05-10T17:19:01.442Z,6.90
2023-05-10T17:20:34.058Z,7.00
2023-05-10T17:22:06.024Z,6.90
2023-05-10T17:23:37.868Z,7.10
2023-05-10T17:25:10.678Z,7.40
2023-05-10T17:26:42.487Z,8.30
2023-05-10T17:28:14.440Z,7.20
2023-05-10T17:29:46.225Z,7.70
2023-05-10T17:31:18.606Z,8.30
2023-05-10T17:32:50.584Z,8.10
2023-05-10T17:34:22.722Z,8.80
2023-05-10T17:35:56.575Z,8.20
2023-05-10T17:37:28.390Z,7.30
2023-05-10T17:39:00.956Z,8.00
2023-05-10T17:40:33.243Z,7.40
2023-05-10T17:42:05.656Z,5.50
2023-05-10T17:43:37.534Z,7.70
2023-05-10T17:45:10.924Z,6.90
2023-05-10T17:46:42.711Z,6.50
2023-05-10T17:48:14.529Z,6.00
2023-05-10T17:49:46.340Z,6.40
2023-05-10T17:51:20.394Z,7.00
2023-05-10T17:52:52.384Z,7.10
2023-05-10T17:54:24.253Z,6.20
2023-05-10T17:56:01.267Z,7.50
2023-05-10T17:57:33.400Z,6.30
2023-05-10T17:59:05.658Z,6.40
2023-05-10T18:00:38.023Z,6.20
2023-05-10T18:02:09.903Z,6.50
2023-05-10T18:03:41.634Z,5.50
2023-05-10T18:05:13.714Z,6.20
2023-05-10T18:06:45.548Z,6.70
2023-05-10T18:08:22.525Z,7.20
2023-05-10T18:09:54.286Z,7.60
2023-05-10T18:11:26.353Z,7.00
2023-05-10T18:13:02.491Z,7.50
2023-05-10T18:14:40.595Z,7.90
2023-05-10T18:16:13.428Z,7.20
2023-05-10T18:17:45.478Z,8.70
2023-05-10T18:19:17.460Z,6.80
2023-05-10T18:20:53.108Z,7.70
2023-05-10T18:22:25.074Z,6.90
2023-05-10T18:23:57.155Z,6.60
2023-05-10T18:25:29.141Z,6.80
2023-05-10T18:27:01.395Z,6.80
2023-05-10T18:28:33.236Z,6.40
2023-05-10T18:30:06.625Z,6.40
2023-05-10T18:31:38.372Z,6.70
2023-05-10T18:33:12.232Z,5.00
2023-05-10T18:34:45.431Z,5.70
2023-05-10T18:36:17.454Z,6.70
2023-05-10T18:37:49.547Z,6.00
2023-05-10T18:39:21.522Z,5.80
2023-05-10T18:40:54.241Z,5.40
2023-05-10T18:42:27.453Z,5.30
2023-05-10T18:43:59.331Z,7.10
2023-05-10T18:45:32.289Z,5.50
2023-05-10T18:47:05.563Z,6.30
2023-05-10T18:48:38.809Z,6.70
2023-05-10T18:50:11.433Z,6.10
2023-05-10T18:51:43.251Z,6.10
2023-05-10T18:53:15.877Z,5.80
2023-05-10T18:54:49.328Z,6.80
2023-05-10T18:56:22.466Z,6.40
2023-05-10T18:57:55.860Z,3.70
2023-05-10T18:59:28.241Z,5.50
2023-05-10T19:01:00.197Z,5.40
2023-05-10T19:02:32.120Z,4.70
2023-05-10T19:04:04.087Z,5.80
2023-05-10T19:05:36.177Z,5.80
2023-05-10T19:07:07.903Z,5.80
2023-05-10T19:08:39.846Z,4.70
2023-05-10T19:10:13.254Z,5.20
2023-05-10T19:11:45.180Z,6.10
2023-05-10T19:13:17.588Z,5.20
2023-05-10T19:14:49.630Z,5.40
2023-05-10T19:16:23.855Z,5.90
2023-05-10T19:17:59.529Z,5.70
2023-05-10T19:19:33.400Z,6.20
2023-05-10T19:21:07.591Z,5.10
2023-05-10T19:22:54.247Z,5.20
2023-05-10T19:24:37.408Z,5.50
2023-05-10T19:26:11.730Z,6.30
2023-05-10T19:27:47.920Z,5.90
2023-05-10T19:29:20.354Z,5.80
2023-05-10T19:30:52.953Z,6.40
2023-05-10T19:32:26.368Z,5.50
2023-05-10T19:34:01.051Z,5.30
2023-05-10T19:35:33.043Z,5.20
2023-05-10T19:37:04.995Z,5.00
2023-05-10T19:38:39.812Z,5.40
2023-05-10T19:40:18.626Z,5.80
2023-05-10T19:41:53.711Z,5.70
2023-05-10T19:43:33.934Z,5.00
2023-05-10T19:45:09.386Z,4.50
2023-05-10T19:46:44.596Z,5.50
2023-05-10T19:48:17.480Z,5.20
2023-05-10T19:49:49.312Z,5.20
2023-05-10T19:51:22.132Z,5.00
2023-05-10T19:52:54.295Z,5.50
2023-05-10T19:54:26.403Z,6.30
2023-05-10T19:56:07.620Z,7.20
2023-05-10T19:57:39.812Z,5.90
2023-05-10T19:59:11.644Z,5.20
2023-05-10T20:00:44.186Z,5.90
2023-05-10T20:02:16.118Z,5.40
2023-05-10T20:03:48.162Z,5.60
2023-05-10T20:05:21.218Z,5.50
2023-05-10T20:06:53.610Z,6.00
2023-05-10T20:08:26.398Z,5.50
2023-05-10T20:09:59.051Z,5.10
2023-05-10T20:11:31.129Z,5.20
2023-05-10T20:13:03.268Z,5.80
2023-05-10T20:14:35.224Z,5.10
2023-05-10T20:16:07.284Z,5.00
2023-05-10T20:17:39.237Z,4.70
2023-05-10T20:19:12.217Z,5.10
2023-05-10T20:20:44.049Z,5.70
2023-05-10T20:22:15.802Z,4.90
2023-05-10T20:23:47.624Z,5.30
2023-05-10T20:25:20.148Z,4.80
2023-05-10T20:26:51.896Z,4.70
2023-05-10T20:28:26.712Z,5.60
2023-05-10T20:29:58.482Z,4.10
2023-05-10T20:31:30.422Z,4.50
2023-05-10T20:33:05.080Z,4.80
2023-05-10T20:34:36.956Z,4.70
2023-05-10T20:36:11.991Z,5.50
2023-05-10T20:37:43.784Z,6.00
2023-05-10T20:39:15.617Z,5.20
2023-05-10T20:40:48.975Z,5.70